Observation data for Knox City on 12/08/2019      Previous  Date       Current Mesonet Observations  Soil Data  Daily Summary Page  Observations in Plain Language
KKN1 080600Z 19009KT 09/03 A3001 RMK A01 T00940030  RH  065%=      5-min Rain = 0
KKN1 080605Z 18010KT 10/03 A3001 RMK A01 T00950030  RH  065%=      5-min Rain = 0
KKN1 080610Z 19010KT 10/03 A30 RMK A01 T00970030  RH  064%=      5-min Rain = 0
KKN1 080615Z 18010KT 10/03 A30 RMK A01 T00980030  RH  064%=      5-min Rain = 0
KKN1 080620Z 18010KT 10/03 A30 RMK A01 T00960030  RH  064%=      5-min Rain = 0
KKN1 080625Z 18010KT 10/03 A30 RMK A01 T00950031  RH  065%=      5-min Rain = 0
KKN1 080630Z 18009KT 09/03 A2999 RMK A01 T00930031  RH  066%=      5-min Rain = 0
KKN1 080635Z 19009KT 09/03 A2999 RMK A01 T00940031  RH  066%=      5-min Rain = 0
KKN1 080640Z 19010KT 09/03 A2999 RMK A01 T00940031  RH  066%=      5-min Rain = 0
KKN1 080645Z 19011KT 10/03 A2999 RMK A01 T00950031  RH  066%=      5-min Rain = 0
KKN1 080650Z 19011KT 09/03 A2998 RMK A01 T00940031  RH  066%=      5-min Rain = 0
KKN1 080655Z 19010KT 09/03 A2998 RMK A01 T00930031  RH  066%=      5-min Rain = 0
KKN1 080700Z 19010KT 09/03 A2998 RMK A01 T00910032  RH  068%=      5-min Rain = 0
KKN1 080705Z 19010KT 09/03 A2998 RMK A01 T00910032  RH  068%=      5-min Rain = 0
KKN1 080710Z 19011KT 09/03 A2998 RMK A01 T00910032  RH  068%=      5-min Rain = 0
KKN1 080715Z 19010KT 09/03 A2998 RMK A01 T00910032  RH  068%=      5-min Rain = 0
KKN1 080720Z 19009KT 09/03 A2997 RMK A01 T00900032  RH  068%=      5-min Rain = 0
KKN1 080725Z 19008KT 09/03 A2997 RMK A01 T00890033  RH  069%=      5-min Rain = 0
KKN1 080730Z 20007KT 09/03 A2997 RMK A01 T00880033  RH  070%=      5-min Rain = 0
KKN1 080735Z 20006KT 09/03 A2997 RMK A01 T00870033  RH  070%=      5-min Rain = 0
KKN1 080740Z 20005KT 08/03 A2997 RMK A01 T00840033  RH  071%=      5-min Rain = 0
KKN1 080745Z 20006KT 08/03 A2997 RMK A01 T00830033  RH  072%=      5-min Rain = 0
KKN1 080750Z 19007KT 08/03 A2996 RMK A01 T00830033  RH  072%=      5-min Rain = 0
KKN1 080755Z 19008KT 08/03 A2996 RMK A01 T00830034  RH  073%=      5-min Rain = 0
KKN1 080800Z 20008KT 08/04 A2996 RMK A01 T00840035  RH  073%=      5-min Rain = 0
KKN1 080805Z 20009KT 08/04 A2996 RMK A01 T00830035  RH  073%=      5-min Rain = 0
KKN1 080810Z 19010KT 08/04 A2995 RMK A01 T00810035  RH  074%=      5-min Rain = 0
KKN1 080815Z 19010KT 08/04 A2995 RMK A01 T00800035  RH  074%=      5-min Rain = 0
KKN1 080820Z 20009KT 08/04 A2994 RMK A01 T00800035  RH  074%=      5-min Rain = 0
KKN1 080825Z 20009KT 08/04 A2994 RMK A01 T00780035  RH  075%=      5-min Rain = 0
KKN1 080830Z 20009KT 08/04 A2994 RMK A01 T00770035  RH  076%=      5-min Rain = 0
KKN1 080835Z 21009KT 08/04 A2994 RMK A01 T00780036  RH  076%=      5-min Rain = 0
KKN1 080840Z 21010KT 08/04 A2994 RMK A01 T00800037  RH  076%=      5-min Rain = 0
KKN1 080845Z 21010KT 08/04 A2994 RMK A01 T00810038  RH  075%=      5-min Rain = 0
KKN1 080850Z 21010KT 08/04 A2994 RMK A01 T00820038  RH  075%=      5-min Rain = 0
KKN1 080855Z 21010KT 08/04 A2994 RMK A01 T00820038  RH  075%=      5-min Rain = 0
KKN1 080900Z 21010KT 08/04 A2994 RMK A01 T00820038  RH  076%=      5-min Rain = 0
KKN1 080905Z 21010KT 08/04 A2994 RMK A01 T00800038  RH  076%=      5-min Rain = 0
KKN1 080910Z 21010KT 08/04 A2994 RMK A01 T00810039  RH  076%=      5-min Rain = 0
KKN1 080915Z 21009KT 08/04 A2994 RMK A01 T00810039  RH  076%=      5-min Rain = 0
KKN1 080920Z 21010KT 08/04 A2994 RMK A01 T00830039  RH  076%=      5-min Rain = 0
KKN1 080925Z 21010KT 08/04 A2994 RMK A01 T00830040  RH  076%=      5-min Rain = 0
KKN1 080930Z 21010KT 09/04 A2994 RMK A01 T00850040  RH  075%=      5-min Rain = 0
KKN1 080935Z 21010KT 09/04 A2994 RMK A01 T00880041  RH  074%=      5-min Rain = 0
KKN1 080940Z 21010KT 09/04 A2994 RMK A01 T00900041  RH  073%=      5-min Rain = 0
KKN1 080945Z 21010KT 09/04 A2994 RMK A01 T00900042  RH  073%=      5-min Rain = 0
KKN1 080950Z 21009KT 09/04 A2994 RMK A01 T00890042  RH  074%=      5-min Rain = 0
KKN1 080955Z 21008KT 09/04 A2994 RMK A01 T00850041  RH  075%=      5-min Rain = 0
KKN1 081000Z 20007KT 08/04 A2994 RMK A01 T00780039  RH  078%=      5-min Rain = 0
KKN1 081005Z 20007KT 07/04 A2993 RMK A01 T00740038  RH  080%=      5-min Rain = 0
KKN1 081010Z 19007KT 07/04 A2993 RMK A01 T00690037  RH  082%=      5-min Rain = 0
KKN1 081015Z 20008KT 07/04 A2993 RMK A01 T00680038  RH  083%=      5-min Rain = 0
KKN1 081020Z 20008KT 07/04 A2993 RMK A01 T00710039  RH  082%=      5-min Rain = 0
KKN1 081025Z 20008KT 07/04 A2993 RMK A01 T00730040  RH  081%=      5-min Rain = 0
KKN1 081030Z 20008KT 08/04 A2993 RMK A01 T00750041  RH  080%=      5-min Rain = 0
KKN1 081035Z 21007KT 08/04 A2993 RMK A01 T00760041  RH  080%=      5-min Rain = 0
KKN1 081040Z 21007KT 08/04 A2993 RMK A01 T00760042  RH  081%=      5-min Rain = 0
KKN1 081045Z 21007KT 08/04 A2992 RMK A01 T00770043  RH  080%=      5-min Rain = 0
KKN1 081050Z 21008KT 08/04 A2992 RMK A01 T00790044  RH  080%=      5-min Rain = 0
KKN1 081055Z 20008KT 08/05 A2992 RMK A01 T00840045  RH  078%=      5-min Rain = 0
KKN1 081100Z 20008KT 08/05 A2991 RMK A01 T00830046  RH  079%=      5-min Rain = 0
KKN1 081105Z 20008KT 08/05 A2991 RMK A01 T00840047  RH  079%=      5-min Rain = 0
KKN1 081110Z 20008KT 09/05 A2992 RMK A01 T00870048  RH  078%=      5-min Rain = 0
KKN1 081115Z 20008KT 09/05 A2992 RMK A01 T00870048  RH  078%=      5-min Rain = 0
KKN1 081120Z 21008KT 09/05 A2992 RMK A01 T00880048  RH  078%=      5-min Rain = 0
KKN1 081125Z 20008KT 09/05 A2992 RMK A01 T00890048  RH  077%=      5-min Rain = 0
KKN1 081130Z 19008KT 09/05 A2991 RMK A01 T00860048  RH  078%=      5-min Rain = 0
KKN1 081135Z 19007KT 08/05 A2991 RMK A01 T00840047  RH  079%=      5-min Rain = 0
KKN1 081140Z 19008KT 08/05 A2991 RMK A01 T00810047  RH  081%=      5-min Rain = 0
KKN1 081145Z 19008KT 08/05 A2991 RMK A01 T00810047  RH  081%=      5-min Rain = 0
KKN1 081150Z 18009KT 08/05 A299 RMK A01 T00830048  RH  080%=      5-min Rain = 0
KKN1 081155Z 18009KT 08/05 A299 RMK A01 T00810048  RH  081%=      5-min Rain = 0
KKN1 081200Z 18009KT 08/05 A299 RMK A01 T00820048  RH  081%=      5-min Rain = 0
KKN1 081205Z 18009KT 08/05 A2989 RMK A01 T00820049  RH  082%=      5-min Rain = 0
KKN1 081210Z 18011KT 08/05 A2989 RMK A01 T00830050  RH  081%=      5-min Rain = 0
KKN1 081215Z 18010KT 09/05 A2989 RMK A01 T00850050  RH  081%=      5-min Rain = 0
KKN1 081220Z 19010KT 09/05 A2989 RMK A01 T00890051  RH  079%=      5-min Rain = 0
KKN1 081225Z 19010KT 09/05 A2989 RMK A01 T00910051  RH  078%=      5-min Rain = 0
KKN1 081230Z 19011KT 09/05 A2989 RMK A01 T00910051  RH  077%=      5-min Rain = 0
KKN1 081235Z 19012KT 09/05 A2989 RMK A01 T00910051  RH  078%=      5-min Rain = 0
KKN1 081240Z 19011KT 09/05 A2989 RMK A01 T00930051  RH  077%=      5-min Rain = 0
KKN1 081245Z 19010KT 09/05 A2989 RMK A01 T00940051  RH  076%=      5-min Rain = 0
KKN1 081250Z 19011KT 09/05 A2989 RMK A01 T00930051  RH  077%=      5-min Rain = 0
KKN1 081255Z 20011KT 09/05 A2989 RMK A01 T00930051  RH  077%=      5-min Rain = 0
KKN1 081300Z 20010KT 09/05 A2989 RMK A01 T00910051  RH  078%=      5-min Rain = 0
KKN1 081305Z 20010KT 09/05 A2989 RMK A01 T00900051  RH  078%=      5-min Rain = 0
KKN1 081310Z 20010KT 09/05 A2989 RMK A01 T00870050  RH  079%=      5-min Rain = 0
KKN1 081315Z 19009KT 09/05 A2989 RMK A01 T00850050  RH  080%=      5-min Rain = 0
KKN1 081320Z 20008KT 09/05 A299 RMK A01 T00850050  RH  080%=      5-min Rain = 0
KKN1 081325Z 19008KT 08/05 A299 RMK A01 T00840050  RH  081%=      5-min Rain = 0
KKN1 081330Z 19009KT 08/05 A299 RMK A01 T00820050  RH  082%=      5-min Rain = 0
KKN1 081335Z 19009KT 08/05 A299 RMK A01 T00810050  RH  083%=      5-min Rain = 0
KKN1 081340Z 19009KT 08/05 A299 RMK A01 T00800050  RH  083%=      5-min Rain = 0
KKN1 081345Z 19008KT 08/05 A299 RMK A01 T00810050  RH  083%=      5-min Rain = 0
KKN1 081350Z 19007KT 08/05 A299 RMK A01 T00800050  RH  083%=      5-min Rain = 0
KKN1 081355Z 18007KT 08/05 A299 RMK A01 T00840052  RH  082%=      5-min Rain = 0
KKN1 081400Z 18007KT 09/05 A299 RMK A01 T00880054  RH  081%=      5-min Rain = 0
KKN1 081405Z 18006KT 09/06 A299 RMK A01 T00930056  RH  080%=      5-min Rain = 0
KKN1 081410Z 18006KT 10/06 A299 RMK A01 T00960058  RH  079%=      5-min Rain = 0
KKN1 081415Z 19007KT 10/06 A299 RMK A01 T01020059  RH  077%=      5-min Rain = 0
KKN1 081420Z 20009KT 11/06 A299 RMK A01 T01110059  RH  072%=      5-min Rain = 0
KKN1 081425Z 20010KT 11/06 A299 RMK A01 T01140058  RH  070%=      5-min Rain = 0
KKN1 081430Z 20010KT 12/06 A2989 RMK A01 T01160058  RH  069%=      5-min Rain = 0
KKN1 081435Z 20010KT 12/06 A2989 RMK A01 T01180059  RH  069%=      5-min Rain = 0
KKN1 081440Z 20009KT 12/06 A2988 RMK A01 T01200059  RH  068%=      5-min Rain = 0
KKN1 081445Z 20010KT 12/06 A2988 RMK A01 T01220059  RH  067%=      5-min Rain = 0
KKN1 081450Z 21011KT 13/06 A2988 RMK A01 T01250058  RH  066%=      5-min Rain = 0
KKN1 081455Z 21012KT 13/06 A2988 RMK A01 T01270058  RH  064%=      5-min Rain = 0
KKN1 081500Z 21012KT 13/06 A2988 RMK A01 T01290058  RH  064%=      5-min Rain = 0
KKN1 081505Z 21013KT 13/06 A2987 RMK A01 T01330059  RH  063%=      5-min Rain = 0
KKN1 081510Z 21012KT 13/06 A2987 RMK A01 T01330059  RH  062%=      5-min Rain = 0
KKN1 081515Z 21012G17KT 14/06 A2987 RMK A01 T01380061  RH  061%=      5-min Rain = 0
KKN1 081520Z 21013G18KT 14/06 A2986 RMK A01 T01420061  RH  060%=      5-min Rain = 0
KKN1 081525Z 22013KT 15/06 A2987 RMK A01 T01450061  RH  058%=      5-min Rain = 0
KKN1 081530Z 21014G19KT 15/06 A2987 RMK A01 T01500061  RH  057%=      5-min Rain = 0
KKN1 081535Z 22013G18KT 15/06 A2987 RMK A01 T01510061  RH  056%=      5-min Rain = 0
KKN1 081540Z 22014G19KT 15/06 A2987 RMK A01 T01500059  RH  056%=      5-min Rain = 0
KKN1 081545Z 22014G19KT 15/06 A2987 RMK A01 T01520060  RH  055%=      5-min Rain = 0
KKN1 081550Z 22014KT 16/06 A2987 RMK A01 T01560060  RH  054%=      5-min Rain = 0
KKN1 081555Z 22013G18KT 16/06 A2987 RMK A01 T01560059  RH  054%=      5-min Rain = 0
KKN1 081600Z 22012KT 16/06 A2988 RMK A01 T01580060  RH  053%=      5-min Rain = 0
KKN1 081605Z 22012KT 16/06 A2988 RMK A01 T01590060  RH  053%=      5-min Rain = 0
KKN1 081610Z 22012KT 16/06 A2987 RMK A01 T01600060  RH  052%=      5-min Rain = 0
KKN1 081615Z 22013KT 16/06 A2988 RMK A01 T01620060  RH  052%=      5-min Rain = 0
KKN1 081620Z 22013KT 17/06 A2987 RMK A01 T01670062  RH  051%=      5-min Rain = 0
KKN1 081625Z 22013KT 17/06 A2987 RMK A01 T01700062  RH  050%=      5-min Rain = 0
KKN1 081630Z 22013KT 17/06 A2987 RMK A01 T01680062  RH  051%=      5-min Rain = 0
KKN1 081635Z 22012G17KT 17/06 A2987 RMK A01 T01690062  RH  050%=      5-min Rain = 0
KKN1 081640Z 22012KT 17/06 A2987 RMK A01 T01700062  RH  050%=      5-min Rain = 0
KKN1 081645Z 22011G16KT 17/06 A2987 RMK A01 T01730062  RH  049%=      5-min Rain = 0
KKN1 081650Z 22012KT 17/06 A2987 RMK A01 T01740061  RH  049%=      5-min Rain = 0
KKN1 081655Z 22012KT 18/06 A2986 RMK A01 T01750060  RH  048%=      5-min Rain = 0
KKN1 081700Z 22010KT 18/06 A2986 RMK A01 T01760061  RH  048%=      5-min Rain = 0
KKN1 081705Z 22010KT 18/06 A2986 RMK A01 T01800062  RH  047%=      5-min Rain = 0
KKN1 081710Z 22010KT 18/06 A2986 RMK A01 T01810062  RH  047%=      5-min Rain = 0
KKN1 081715Z 22012KT 18/06 A2986 RMK A01 T01800061  RH  047%=      5-min Rain = 0
KKN1 081720Z 22010KT 18/06 A2985 RMK A01 T01800061  RH  047%=      5-min Rain = 0
KKN1 081725Z 22011KT 18/06 A2985 RMK A01 T01820060  RH  046%=      5-min Rain = 0
KKN1 081730Z 23012KT 18/06 A2985 RMK A01 T01840060  RH  045%=      5-min Rain = 0
KKN1 081735Z 23009KT 19/06 A2985 RMK A01 T01850061  RH  045%=      5-min Rain = 0
KKN1 081740Z 23009KT 19/06 A2985 RMK A01 T01870061  RH  045%=      5-min Rain = 0
KKN1 081745Z 22007KT 19/06 A2984 RMK A01 T01890062  RH  044%=      5-min Rain = 0
KKN1 081750Z 22006KT 19/06 A2984 RMK A01 T01910064  RH  044%=      5-min Rain = 0
KKN1 081755Z 23007KT 19/06 A2984 RMK A01 T01930064  RH  044%=      5-min Rain = 0
KKN1 081800Z 23007KT 19/07 A2983 RMK A01 T01930065  RH  044%=      5-min Rain = 0
KKN1 081805Z 22007KT 19/07 A2982 RMK A01 T01940065  RH  044%=      5-min Rain = 0
KKN1 081810Z 22008KT 19/07 A2982 RMK A01 T01940065  RH  044%=      5-min Rain = 0
KKN1 081815Z 22008KT 19/07 A2982 RMK A01 T01940066  RH  044%=      5-min Rain = 0
KKN1 081820Z 22009KT 20/07 A2982 RMK A01 T01950066  RH  044%=      5-min Rain = 0
KKN1 081825Z 22010KT 20/07 A2982 RMK A01 T01960066  RH  044%=      5-min Rain = 0
KKN1 081830Z 21011KT 20/07 A2981 RMK A01 T01980065  RH  043%=      5-min Rain = 0
KKN1 081835Z 21009KT 20/07 A298 RMK A01 T02000065  RH  043%=      5-min Rain = 0
KKN1 081840Z 22010KT 21/07 A298 RMK A01 T02050066  RH  042%=      5-min Rain = 0
KKN1 081845Z 22010KT 21/07 A2979 RMK A01 T02090067  RH  041%=      5-min Rain = 0
KKN1 081850Z 22011KT 21/06 A2979 RMK A01 T02090064  RH  040%=      5-min Rain = 0
KKN1 081855Z 23010G15KT 21/07 A2979 RMK A01 T02110065  RH  040%=      5-min Rain = 0
KKN1 081900Z 23011KT 21/06 A2978 RMK A01 T02120064  RH  039%=      5-min Rain = 0
KKN1 081905Z 23012KT 21/06 A2978 RMK A01 T02130064  RH  039%=      5-min Rain = 0
KKN1 081910Z 24012KT 21/06 A2978 RMK A01 T02140064  RH  039%=      5-min Rain = 0
KKN1 081915Z 24012KT 22/07 A2978 RMK A01 T02160065  RH  038%=      5-min Rain = 0
KKN1 081920Z 24012KT 22/06 A2978 RMK A01 T02190064  RH  037%=      5-min Rain = 0
KKN1 081925Z 23011KT 22/07 A2978 RMK A01 T02210065  RH  037%=      5-min Rain = 0
KKN1 081930Z 23011KT 22/07 A2977 RMK A01 T02220066  RH  037%=      5-min Rain = 0
KKN1 081935Z 23011KT 22/07 A2977 RMK A01 T02230066  RH  037%=      5-min Rain = 0
KKN1 081940Z 23010KT 22/07 A2977 RMK A01 T02240066  RH  037%=      5-min Rain = 0
KKN1 081945Z 23011KT 23/07 A2977 RMK A01 T02260066  RH  036%=      5-min Rain = 0
KKN1 081950Z 23010KT 23/07 A2977 RMK A01 T02280067  RH  036%=      5-min Rain = 0
KKN1 081955Z 22009KT 23/07 A2976 RMK A01 T02300068  RH  036%=      5-min Rain = 0
KKN1 082000Z 22009KT 23/07 A2976 RMK A01 T02300068  RH  036%=      5-min Rain = 0
KKN1 082005Z 21008KT 23/07 A2976 RMK A01 T02290069  RH  036%=      5-min Rain = 0
KKN1 082010Z 22008KT 23/07 A2976 RMK A01 T02290069  RH  037%=      5-min Rain = 0
KKN1 082015Z 22007KT 23/07 A2976 RMK A01 T02330068  RH  036%=      5-min Rain = 0
KKN1 082020Z 21010KT 24/07 A2975 RMK A01 T02350068  RH  035%=      5-min Rain = 0
KKN1 082025Z 21012KT 23/07 A2975 RMK A01 T02330069  RH  036%=      5-min Rain = 0
KKN1 082030Z 22011KT 23/07 A2975 RMK A01 T02330069  RH  036%=      5-min Rain = 0
KKN1 082035Z 22012G18KT 24/07 A2974 RMK A01 T02350066  RH  035%=      5-min Rain = 0
KKN1 082040Z 22012G18KT 24/07 A2974 RMK A01 T02370067  RH  034%=      5-min Rain = 0
KKN1 082045Z 22014G19KT 24/06 A2974 RMK A01 T02390064  RH  033%=      5-min Rain = 0
KKN1 082050Z 22013KT 24/07 A2974 RMK A01 T02410065  RH  033%=      5-min Rain = 0
KKN1 082055Z 22016G21KT 24/06 A2974 RMK A01 T02410064  RH  033%=      5-min Rain = 0
KKN1 082100Z 22015KT 24/06 A2974 RMK A01 T02410064  RH  033%=      5-min Rain = 0
KKN1 082105Z 22015G20KT 24/06 A2973 RMK A01 T02430064  RH  032%=      5-min Rain = 0
KKN1 082110Z 22014KT 24/07 A2973 RMK A01 T02430065  RH  033%=      5-min Rain = 0
KKN1 082115Z 22014KT 24/07 A2973 RMK A01 T02410065  RH  033%=      5-min Rain = 0
KKN1 082120Z 22015KT 24/07 A2973 RMK A01 T02390065  RH  034%=      5-min Rain = 0
KKN1 082125Z 22013G18KT 24/07 A2973 RMK A01 T02380065  RH  034%=      5-min Rain = 0
KKN1 082130Z 22013KT 24/07 A2973 RMK A01 T02400067  RH  034%=      5-min Rain = 0
KKN1 082135Z 22014KT 24/07 A2973 RMK A01 T02400065  RH  033%=      5-min Rain = 0
KKN1 082140Z 22014G19KT 24/06 A2973 RMK A01 T02410064  RH  033%=      5-min Rain = 0
KKN1 082145Z 21013KT 24/07 A2973 RMK A01 T02400065  RH  033%=      5-min Rain = 0
KKN1 082150Z 22011G16KT 24/07 A2973 RMK A01 T02400066  RH  034%=      5-min Rain = 0
KKN1 082155Z 21012KT 24/07 A2973 RMK A01 T02400065  RH  033%=      5-min Rain = 0
KKN1 082200Z 21013KT 24/07 A2973 RMK A01 T02390065  RH  033%=      5-min Rain = 0
KKN1 082205Z 21013KT 24/07 A2972 RMK A01 T02390065  RH  033%=      5-min Rain = 0
KKN1 082210Z 21012KT 24/07 A2973 RMK A01 T02380065  RH  034%=      5-min Rain = 0
KKN1 082215Z 21013KT 24/06 A2973 RMK A01 T02370064  RH  034%=      5-min Rain = 0
KKN1 082220Z 21013KT 24/06 A2973 RMK A01 T02350063  RH  034%=      5-min Rain = 0
KKN1 082225Z 21013KT 23/06 A2973 RMK A01 T02340063  RH  034%=      5-min Rain = 0
KKN1 082230Z 21013KT 23/06 A2973 RMK A01 T02330063  RH  034%=      5-min Rain = 0
KKN1 082235Z 21012KT 23/06 A2972 RMK A01 T02310063  RH  035%=      5-min Rain = 0
KKN1 082240Z 21011KT 23/06 A2972 RMK A01 T02270064  RH  036%=      5-min Rain = 0
KKN1 082245Z 21011KT 22/06 A2972 RMK A01 T02240064  RH  036%=      5-min Rain = 0
KKN1 082250Z 21012KT 22/06 A2971 RMK A01 T02230064  RH  037%=      5-min Rain = 0
KKN1 082255Z 21013KT 22/06 A2972 RMK A01 T02240063  RH  036%=      5-min Rain = 0
KKN1 082300Z 21013KT 22/06 A2972 RMK A01 T02240063  RH  036%=      5-min Rain = 0
KKN1 082305Z 22013KT 22/06 A2972 RMK A01 T02240063  RH  036%=      5-min Rain = 0
KKN1 082310Z 22012KT 22/06 A2971 RMK A01 T02220063  RH  037%=      5-min Rain = 0
KKN1 082315Z 22012KT 22/06 A2972 RMK A01 T02200064  RH  037%=      5-min Rain = 0
KKN1 082320Z 22011KT 22/07 A2973 RMK A01 T02170065  RH  038%=      5-min Rain = 0
KKN1 082325Z 21011KT 21/07 A2973 RMK A01 T02140065  RH  039%=      5-min Rain = 0
KKN1 082330Z 21011KT 21/07 A2973 RMK A01 T02130065  RH  039%=      5-min Rain = 0
KKN1 082335Z 21010KT 21/07 A2973 RMK A01 T02100066  RH  040%=      5-min Rain = 0
KKN1 082340Z 21010KT 21/07 A2973 RMK A01 T02070066  RH  041%=      5-min Rain = 0
KKN1 082345Z 22011KT 21/07 A2973 RMK A01 T02090066  RH  040%=      5-min Rain = 0
KKN1 082350Z 22010KT 21/07 A2974 RMK A01 T02070066  RH  041%=      5-min Rain = 0
KKN1 082355Z 22009KT 20/07 A2974 RMK A01 T02010066  RH  042%=      5-min Rain = 0
KKN1 090000Z 21009KT 20/07 A2974 RMK A01 T01990067  RH  043%=      5-min Rain = 0
KKN1 090005Z 21009KT 20/07 A2974 RMK A01 T01970067  RH  044%=      5-min Rain = 0
KKN1 090010Z 21009KT 20/07 A2974 RMK A01 T01970067  RH  044%=      5-min Rain = 0
KKN1 090015Z 21010KT 20/07 A2973 RMK A01 T01970067  RH  044%=      5-min Rain = 0
KKN1 090020Z 21012KT 20/07 A2973 RMK A01 T01980067  RH  044%=      5-min Rain = 0
KKN1 090025Z 21012KT 20/07 A2973 RMK A01 T01990067  RH  043%=      5-min Rain = 0
KKN1 090030Z 21011KT 20/07 A2973 RMK A01 T02010067  RH  043%=      5-min Rain = 0
KKN1 090035Z 21012KT 20/07 A2973 RMK A01 T02010067  RH  043%=      5-min Rain = 0
KKN1 090040Z 21012KT 20/07 A2973 RMK A01 T02020066  RH  042%=      5-min Rain = 0
KKN1 090045Z 21012KT 20/07 A2973 RMK A01 T02010066  RH  042%=      5-min Rain = 0
KKN1 090050Z 21012KT 20/07 A2974 RMK A01 T02040066  RH  042%=      5-min Rain = 0
KKN1 090055Z 21011KT 20/07 A2973 RMK A01 T02020066  RH  042%=      5-min Rain = 0
KKN1 090100Z 22011KT 20/07 A2974 RMK A01 T02020066  RH  042%=      5-min Rain = 0
KKN1 090105Z 22011KT 20/07 A2974 RMK A01 T02020067  RH  042%=      5-min Rain = 0
KKN1 090110Z 22010KT 20/07 A2974 RMK A01 T02000067  RH  043%=      5-min Rain = 0
KKN1 090115Z 22010KT 20/07 A2974 RMK A01 T01980067  RH  044%=      5-min Rain = 0
KKN1 090120Z 22009KT 20/07 A2974 RMK A01 T01960067  RH  044%=      5-min Rain = 0
KKN1 090125Z 22008KT 19/07 A2974 RMK A01 T01940067  RH  045%=      5-min Rain = 0
KKN1 090130Z 22007KT 19/07 A2974 RMK A01 T01900068  RH  046%=      5-min Rain = 0
KKN1 090135Z 22007KT 18/07 A2974 RMK A01 T01840068  RH  048%=      5-min Rain = 0
KKN1 090140Z 22008KT 18/07 A2974 RMK A01 T01800069  RH  049%=      5-min Rain = 0
KKN1 090145Z 21008KT 18/07 A2973 RMK A01 T01780069  RH  050%=      5-min Rain = 0
KKN1 090150Z 22007KT 18/07 A2974 RMK A01 T01770069  RH  051%=      5-min Rain = 0
KKN1 090155Z 22007KT 18/07 A2974 RMK A01 T01790069  RH  050%=      5-min Rain = 0
KKN1 090200Z 21007KT 18/07 A2974 RMK A01 T01780069  RH  050%=      5-min Rain = 0
KKN1 090205Z 22007KT 18/07 A2974 RMK A01 T01770069  RH  051%=      5-min Rain = 0
KKN1 090210Z 21007KT 18/07 A2974 RMK A01 T01760070  RH  051%=      5-min Rain = 0
KKN1 090215Z 21008KT 18/07 A2974 RMK A01 T01760070  RH  051%=      5-min Rain = 0
KKN1 090220Z 21009KT 18/07 A2974 RMK A01 T01800069  RH  050%=      5-min Rain = 0
KKN1 090225Z 21010KT 18/07 A2974 RMK A01 T01810069  RH  049%=      5-min Rain = 0
KKN1 090230Z 21009KT 18/07 A2974 RMK A01 T01790069  RH  050%=      5-min Rain = 0
KKN1 090235Z 21010KT 18/07 A2974 RMK A01 T01780069  RH  050%=      5-min Rain = 0
KKN1 090240Z 21010KT 18/07 A2974 RMK A01 T01790068  RH  050%=      5-min Rain = 0
KKN1 090245Z 22009KT 18/07 A2974 RMK A01 T01780068  RH  050%=      5-min Rain = 0
KKN1 090250Z 22009KT 18/07 A2974 RMK A01 T01760068  RH  050%=      5-min Rain = 0
KKN1 090255Z 22009KT 17/07 A2974 RMK A01 T01740068  RH  051%=      5-min Rain = 0
KKN1 090300Z 22008KT 17/07 A2973 RMK A01 T01720068  RH  052%=      5-min Rain = 0
KKN1 090305Z 23008KT 17/07 A2974 RMK A01 T01680069  RH  053%=      5-min Rain = 0
KKN1 090310Z 24007KT 17/07 A2974 RMK A01 T01680068  RH  053%=      5-min Rain = 0
KKN1 090315Z 25007KT 17/07 A2974 RMK A01 T01670068  RH  053%=      5-min Rain = 0
KKN1 090320Z 25007KT 17/07 A2974 RMK A01 T01680068  RH  053%=      5-min Rain = 0
KKN1 090325Z 23007KT 16/07 A2974 RMK A01 T01600069  RH  056%=      5-min Rain = 0
KKN1 090330Z 21008KT 15/07 A2974 RMK A01 T01540070  RH  059%=      5-min Rain = 0
KKN1 090335Z 21009KT 16/07 A2973 RMK A01 T01550070  RH  058%=      5-min Rain = 0
KKN1 090340Z 21010KT 16/07 A2973 RMK A01 T01610070  RH  056%=      5-min Rain = 0
KKN1 090345Z 23011KT 17/07 A2974 RMK A01 T01710069  RH  052%=      5-min Rain = 0
KKN1 090350Z 27009KT 17/07 A2975 RMK A01 T01720069  RH  052%=      5-min Rain = 0
KKN1 090355Z 26009KT 16/07 A2975 RMK A01 T01640069  RH  055%=      5-min Rain = 0
KKN1 090400Z 25008KT 17/07 A2974 RMK A01 T01680068  RH  053%=      5-min Rain = 0
KKN1 090405Z 24009KT 17/07 A2974 RMK A01 T01670068  RH  053%=      5-min Rain = 0
KKN1 090410Z 24009KT 17/07 A2974 RMK A01 T01680068  RH  053%=      5-min Rain = 0
KKN1 090415Z 23009KT 17/07 A2974 RMK A01 T01690067  RH  052%=      5-min Rain = 0
KKN1 090420Z 22009KT 17/07 A2973 RMK A01 T01680068  RH  053%=      5-min Rain = 0
KKN1 090425Z 22009KT 17/07 A2973 RMK A01 T01660069  RH  054%=      5-min Rain = 0
KKN1 090430Z 22008KT 16/07 A2974 RMK A01 T01640069  RH  054%=      5-min Rain = 0
KKN1 090435Z 22009KT 16/07 A2974 RMK A01 T01630069  RH  055%=      5-min Rain = 0
KKN1 090440Z 23008KT 16/07 A2974 RMK A01 T01600069  RH  056%=      5-min Rain = 0
KKN1 090445Z 24008KT 16/07 A2974 RMK A01 T01600068  RH  056%=      5-min Rain = 0
KKN1 090450Z 24009KT 17/07 A2973 RMK A01 T01650068  RH  054%=      5-min Rain = 0
KKN1 090455Z 24009KT 17/07 A2973 RMK A01 T01690068  RH  053%=      5-min Rain = 0
KKN1 090500Z 24008KT 17/07 A2973 RMK A01 T01690068  RH  053%=      5-min Rain = 0
KKN1 090505Z 25009KT 17/07 A2973 RMK A01 T01700068  RH  052%=      5-min Rain = 0
KKN1 090510Z 25008KT 17/07 A2973 RMK A01 T01700068  RH  052%=      5-min Rain = 0
KKN1 090515Z 25009KT 17/07 A2974 RMK A01 T01690068  RH  053%=      5-min Rain = 0
KKN1 090520Z 25009KT 17/07 A2974 RMK A01 T01690068  RH  052%=      5-min Rain = 0
KKN1 090525Z 25009KT 17/07 A2974 RMK A01 T01690068  RH  052%=      5-min Rain = 0
KKN1 090530Z 25009KT 17/07 A2974 RMK A01 T01680067  RH  053%=      5-min Rain = 0
KKN1 090535Z 25010KT 17/07 A2974 RMK A01 T01680067  RH  053%=      5-min Rain = 0
KKN1 090540Z 25009KT 17/07 A2975 RMK A01 T01680067  RH  052%=      5-min Rain = 0
KKN1 090545Z 25009KT 17/07 A2975 RMK A01 T01670067  RH  053%=      5-min Rain = 0
KKN1 090550Z 25008KT 17/07 A2974 RMK A01 T01650067  RH  054%=      5-min Rain = 0
KKN1 090555Z 25008KT 16/07 A2974 RMK A01 T01640067  RH  054%=      5-min Rain = 0

Page generated in 0.0149 seconds.